Time;durP1;ratioP1;P1;durP2;ratioP2;P2;SDS_P1;SDS_P2;PMS_P1;PMS_P2;Temp;Humidity;BMP_temperature;BMP_pressure;BME280_temperature;BME280_humidity;BME280_pressure;Samples;Min_cycle;Max_cycle;Signal;HPM_P1;HPM_P2
2022/09/24 00:09:02;;;;;;;15.73;11.25;;;7.80;99.90;;;;;;20409482;29;20059;-46
2022/09/24 00:19:05;;;;;;;19.42;11.98;;;7.80;99.90;;;;;;20408620;29;20067;-47
2022/09/24 00:29:09;;;;;;;14.25;10.57;;;7.60;99.90;;;;;;20407209;29;20036;-56
2022/09/24 00:39:13;;;;;;;14.25;10.00;;;7.50;99.90;;;;;;20407045;29;20051;-58
2022/09/24 00:49:17;;;;;;;14.20;9.52;;;7.60;99.90;;;;;;20405970;29;20052;-46
2022/09/24 00:59:31;;;;;;;13.57;10.20;;;7.50;99.90;;;;;;21229433;27;20378;-57
2022/09/24 01:09:33;;;;;;;16.48;10.65;;;7.30;99.90;;;;;;21124927;28;20032;-48
2022/09/24 01:19:51;;;;;;;15.70;8.75;;;7.30;99.90;;;;;;21124405;28;20073;-48
2022/09/24 01:30:11;;;;;;;14.23;8.48;;;7.30;99.90;;;;;;21123475;28;20040;-46
2022/09/24 01:40:17;;;;;;;11.68;8.60;;;7.40;99.90;;;;;;21096159;28;20095;-49
2022/09/24 01:50:23;;;;;;;12.18;8.32;;;7.50;99.90;;;;;;21181542;28;20055;-49
2022/09/24 02:00:26;;;;;;;13.27;8.10;;;7.60;99.90;;;;;;21121990;28;20035;-48
2022/09/24 02:10:36;;;;;;;10.60;7.43;;;7.60;99.90;;;;;;21066591;28;20032;-48
2022/09/24 02:20:42;;;;;;;9.57;7.50;;;7.60;99.90;;;;;;21063926;28;20040;-49
2022/09/24 02:31:13;;;;;;;13.45;7.35;;;7.60;99.90;;;;;;21063380;28;20032;-50
2022/09/24 02:41:16;;;;;;;;;;;7.70;99.90;;;;;;21076155;28;20440;-48
2022/09/24 02:51:18;;;;;;;10.63;6.38;;;7.70;99.90;;;;;;21111940;28;19920;-46
2022/09/24 03:01:21;;;;;;;7.70;6.50;;;7.80;99.90;;;;;;21060346;28;20097;-47
2022/09/24 03:11:24;;;;;;;10.25;7.45;;;7.80;99.90;;;;;;21059806;28;20109;-47
2022/09/24 03:21:28;;;;;;;11.63;7.57;;;7.80;99.90;;;;;;21057989;28;20036;-47
2022/09/24 03:31:30;;;;;;;11.95;7.47;;;7.80;99.90;;;;;;21058444;28;20032;-47
2022/09/24 03:41:32;;;;;;;9.80;6.97;;;7.70;99.90;;;;;;21073335;28;20028;-50
2022/09/24 03:51:35;;;;;;;12.20;7.57;;;7.70;99.90;;;;;;21105091;28;20558;-46
2022/09/24 04:01:38;;;;;;;10.52;7.82;;;7.60;99.90;;;;;;21056085;28;20036;-46
2022/09/24 04:11:41;;;;;;;15.82;9.38;;;7.50;99.90;;;;;;21055319;28;20032;-46
2022/09/24 04:21:45;;;;;;;12.82;10.27;;;7.40;99.90;;;;;;21054728;28;20062;-48
2022/09/24 04:31:47;;;;;;;13.93;9.77;;;7.40;99.90;;;;;;21054062;28;20097;-46
2022/09/24 04:41:49;;;;;;;15.82;8.80;;;7.50;99.90;;;;;;21071680;28;20048;-48
2022/09/24 04:51:52;;;;;;;10.38;8.32;;;7.60;99.90;;;;;;21098668;28;20056;-47
2022/09/24 05:01:54;;;;;;;10.32;7.32;;;7.60;99.90;;;;;;21052878;28;20437;-47
2022/09/24 05:12:00;;;;;;;8.15;5.88;;;7.60;99.90;;;;;;21052375;28;20066;-46
2022/09/24 05:22:04;;;;;;;7.57;5.75;;;7.60;99.90;;;;;;21051836;28;20040;-48
2022/09/24 05:32:11;;;;;;;6.93;5.70;;;7.60;99.90;;;;;;21070380;28;20032;-47
2022/09/24 05:42:13;;;;;;;8.90;5.72;;;7.60;99.90;;;;;;21082756;28;20108;-47
2022/09/24 05:52:16;;;;;;;6.40;5.07;;;7.70;99.90;;;;;;21109113;28;20105;-48
2022/09/24 06:02:18;;;;;;;7.65;5.47;;;7.90;99.90;;;;;;21066356;28;20526;-47
2022/09/24 06:12:22;;;;;;;7.50;5.47;;;8.10;99.90;;;;;;21065224;28;20423;-46
2022/09/24 06:22:27;;;;;;;7.80;6.03;;;8.20;99.90;;;;;;21064554;28;20032;-45
2022/09/24 06:32:30;;;;;;;7.18;5.53;;;8.50;99.90;;;;;;21063695;28;20093;-47
2022/09/24 06:42:32;;;;;;;6.47;4.97;;;8.70;99.90;;;;;;21087485;28;20416;-59
2022/09/24 06:52:34;;;;;;;5.85;4.43;;;9.10;99.90;;;;;;21101845;28;20052;-49
2022/09/24 07:02:37;;;;;;;5.53;4.05;;;9.50;99.90;;;;;;21061083;28;20036;-49
2022/09/24 07:12:41;;;;;;;4.68;3.88;;;10.00;99.90;;;;;;21060690;28;20089;-49
2022/09/24 07:22:44;;;;;;;5.63;3.85;;;10.50;99.90;;;;;;21059947;28;20039;-48
2022/09/24 07:32:49;;;;;;;4.13;3.42;;;10.80;99.90;;;;;;21058795;28;20164;-47
2022/09/24 07:42:53;;;;;;;4.88;3.60;;;10.70;99.90;;;;;;21085252;28;20028;-59
2022/09/24 07:52:55;;;;;;;4.03;3.58;;;10.70;99.90;;;;;;21069096;28;20043;-49
2022/09/24 08:02:58;;;;;;;4.95;3.15;;;10.90;99.90;;;;;;21089411;28;20032;-59
2022/09/24 08:13:01;;;;;;;5.53;3.03;;;11.50;99.90;;;;;;21070958;28;20434;-47
2022/09/24 08:23:08;;;;;;;4.28;2.65;;;12.20;99.90;;;;;;21091044;28;20444;-46
2022/09/24 08:33:11;;;;;;;3.17;2.63;;;12.60;99.90;;;;;;21054467;28;20040;-47
2022/09/24 08:43:55;;;;;;;3.03;2.53;;;12.30;99.90;;;;;;20983754;28;20044;-51
2022/09/24 08:54:08;;;;;;;2.75;2.28;;;12.10;99.90;;;;;;20636771;28;20042;-47
2022/09/24 09:04:20;;;;;;;3.28;2.38;;;12.20;99.90;;;;;;20633865;28;20062;-48
2022/09/24 09:14:39;;;;;;;4.63;2.80;;;12.30;99.90;;;;;;20638899;28;20082;-48
2022/09/24 09:24:48;;;;;;;4.40;2.95;;;12.70;99.90;;;;;;20762802;28;20397;-47
2022/09/24 09:35:17;;;;;;;4.25;3.00;;;13.20;99.90;;;;;;21005779;28;20044;-46
2022/09/24 09:45:23;;;;;;;3.38;2.85;;;13.20;99.90;;;;;;21105385;28;20031;-47
2022/09/24 09:55:33;;;;;;;5.60;3.03;;;13.10;99.90;;;;;;21082416;28;20052;-48
2022/09/24 10:05:36;;;;;;;5.25;2.88;;;12.90;99.90;;;;;;21066849;28;20546;-48
2022/09/24 10:15:53;;;;;;;3.55;2.50;;;12.60;99.90;;;;;;21065872;28;20085;-46
2022/09/24 10:26:01;;;;;;;3.08;2.50;;;12.40;99.90;;;;;;21063966;28;20032;-48
2022/09/24 10:36:19;;;;;;;2.17;1.75;;;12.30;99.90;;;;;;21063419;28;20044;-46
2022/09/24 10:46:46;;;;;;;2.92;2.20;;;12.10;99.90;;;;;;21109126;28;20072;-47
2022/09/24 10:56:53;;;;;;;3.53;2.47;;;12.10;99.90;;;;;;21066227;28;20074;-46
2022/09/24 11:07:23;;;;;;;2.83;2.40;;;11.70;99.90;;;;;;21061000;28;20031;-47
2022/09/24 11:17:35;;;;;;;5.57;3.53;;;11.10;99.90;;;;;;21060165;28;20445;-46
2022/09/24 11:27:44;;;;;;;4.25;3.60;;;10.70;99.90;;;;;;21059091;28;20066;-46
2022/09/24 11:38:12;;;;;;;4.22;3.78;;;10.40;99.90;;;;;;21057411;28;20035;-46
2022/09/24 11:48:35;;;;;;;8.18;4.78;;;10.30;99.90;;;;;;21111685;28;20036;-46
2022/09/24 11:58:47;;;;;;;5.43;4.43;;;10.00;99.90;;;;;;21056682;28;20197;-48
2022/09/24 12:09:03;;;;;;;6.18;4.78;;;9.90;99.90;;;;;;21056075;28;20400;-62
2022/09/24 12:19:17;;;;;;;6.10;4.63;;;10.50;99.90;;;;;;21055022;28;20036;-63
2022/09/24 12:40:14;;;;;;;7.88;5.15;;;10.40;99.90;;;;;;21053777;28;20556;-47
2022/09/24 12:50:27;;;;;;;11.38;7.10;;;9.80;99.90;;;;;;21107267;28;20064;-47
2022/09/24 13:00:42;;;;;;;10.30;7.63;;;9.30;99.90;;;;;;21053354;28;20036;-46
2022/09/24 13:11:04;;;;;;;11.18;9.48;;;8.90;99.90;;;;;;21051796;28;20089;-48
2022/09/24 13:21:17;;;;;;;5.55;4.85;;;8.90;99.90;;;;;;21052194;28;20085;-48
2022/09/24 13:31:46;;;;;;;0.65;0.52;;;9.10;99.90;;;;;;20993627;28;20126;-48
2022/09/24 13:42:13;;;;;;;1.63;0.70;;;9.70;99.90;;;;;;21054629;28;20039;-48
2022/09/24 13:52:31;;;;;;;1.17;0.77;;;10.00;99.90;;;;;;21093630;28;20048;-48
2022/09/24 14:02:37;;;;;;;2.65;2.17;;;10.30;99.90;;;;;;21058393;28;20089;-47
2022/09/24 14:12:39;;;;;;;5.70;5.10;;;10.60;99.90;;;;;;21065469;28;20182;-50
2022/09/24 14:22:44;;;;;;;7.25;6.47;;;11.00;99.90;;;;;;21064253;28;20036;-48
2022/09/24 14:32:53;;;;;;;6.03;4.57;;;11.10;99.90;;;;;;21046738;28;20031;-48
2022/09/24 14:43:00;;;;;;;5.30;4.80;;;11.30;99.90;;;;;;21079881;28;20032;-47
2022/09/24 14:53:19;;;;;;;5.90;5.15;;;11.50;99.90;;;;;;21097812;28;20446;-47
2022/09/24 15:03:37;;;;;;;6.78;5.60;;;11.30;99.90;;;;;;21076180;28;20082;-46
2022/09/24 15:13:40;;;;;;;6.88;6.00;;;11.20;99.90;;;;;;21060400;28;20040;-48
2022/09/24 15:23:42;;;;;;;8.98;6.40;;;11.40;99.90;;;;;;21059515;28;20036;-46
2022/09/24 15:33:44;;;;;;;8.57;5.88;;;11.40;99.90;;;;;;21058523;28;20089;-47
2022/09/24 15:43:48;;;;;;;8.20;5.60;;;11.20;99.90;;;;;;21082299;28;20043;-49
2022/09/24 15:53:50;;;;;;;9.00;6.75;;;10.90;99.90;;;;;;21086090;28;20044;-62
2022/09/24 16:03:53;;;;;;;8.27;6.15;;;10.60;99.90;;;;;;21056400;28;20107;-47
2022/09/24 16:13:55;;;;;;;8.43;7.05;;;10.40;99.90;;;;;;21055525;28;20097;-61
2022/09/24 16:23:59;;;;;;;11.98;8.43;;;10.10;99.90;;;;;;21054427;28;20028;-61
2022/09/24 16:34:02;;;;;;;8.82;7.70;;;9.80;99.90;;;;;;21054091;28;20093;-47
2022/09/24 16:44:05;;;;;;;10.20;8.27;;;9.40;99.90;;;;;;21080499;28;20089;-55
2022/09/24 16:54:08;;;;;;;12.45;10.23;;;9.20;99.90;;;;;;21063319;28;20512;-47
2022/09/24 17:04:10;;;;;;;11.52;9.65;;;8.90;99.90;;;;;;21052867;28;20473;-47
2022/09/24 17:14:14;;;;;;;12.82;10.32;;;8.70;99.90;;;;;;21054628;28;20036;-60
2022/09/24 17:24:17;;;;;;;12.90;9.18;;;8.60;99.90;;;;;;21052009;28;20490;-47
2022/09/24 17:34:20;;;;;;;11.02;9.45;;;8.50;99.90;;;;;;21054771;28;20058;-60
2022/09/24 17:44:23;;;;;;;13.50;10.93;;;8.50;99.90;;;;;;21096932;28;20032;-51
2022/09/24 17:54:25;;;;;;;17.88;12.23;;;8.50;99.90;;;;;;21091422;28;20441;-47
2022/09/24 18:04:30;;;;;;;12.23;9.70;;;8.50;99.90;;;;;;21065701;28;20094;-47
2022/09/24 18:14:33;;;;;;;12.80;9.93;;;8.50;99.90;;;;;;21064552;28;20068;-60
2022/09/24 18:24:36;;;;;;;13.85;10.93;;;8.60;99.90;;;;;;21063847;28;20032;-48
2022/09/24 18:34:39;;;;;;;12.77;10.68;;;8.50;99.90;;;;;;21063229;28;20074;-47
2022/09/24 18:44:43;;;;;;;16.63;11.00;;;8.60;99.90;;;;;;21094197;28;20088;-49
2022/09/24 18:54:45;;;;;;;12.13;10.30;;;8.60;99.90;;;;;;21101057;28;20048;-48
2022/09/24 19:04:48;;;;;;;13.40;11.40;;;8.60;99.90;;;;;;21060665;28;20558;-48
2022/09/24 19:14:52;;;;;;;12.23;9.98;;;8.60;99.90;;;;;;21058330;28;20550;-62
2022/09/24 19:24:55;;;;;;;13.02;10.23;;;8.60;99.90;;;;;;21058153;28;20493;-46
2022/09/24 19:34:58;;;;;;;14.93;10.43;;;8.50;99.90;;;;;;21058269;28;20040;-62
2022/09/24 19:45:04;;;;;;;15.23;12.85;;;8.40;99.90;;;;;;21093281;28;20043;-47
2022/09/24 19:55:07;;;;;;;13.65;11.90;;;8.40;99.90;;;;;;21074777;28;20081;-46
2022/09/24 20:05:10;;;;;;;14.50;11.00;;;8.30;99.90;;;;;;21055823;28;20032;-47
2022/09/24 20:15:12;;;;;;;13.68;9.90;;;8.30;99.90;;;;;;21055393;28;20040;-62
2022/09/24 20:25:15;;;;;;;13.90;10.80;;;8.20;99.90;;;;;;21054771;28;20489;-47
2022/09/24 20:35:17;;;;;;;11.02;8.70;;;8.20;99.90;;;;;;21053697;28;20389;-62
2022/09/24 20:45:19;;;;;;;14.82;11.30;;;8.20;99.90;;;;;;21090622;28;20043;-48
2022/09/24 20:55:23;;;;;;;12.18;9.60;;;8.20;99.90;;;;;;21068830;28;20044;-47
2022/09/24 21:05:27;;;;;;;11.07;9.10;;;8.20;99.90;;;;;;21052411;28;20082;-62
2022/09/24 21:15:29;;;;;;;15.77;10.32;;;8.20;99.90;;;;;;21067772;28;20086;-51
2022/09/24 21:25:32;;;;;;;11.40;9.00;;;8.30;99.90;;;;;;21067841;28;20039;-49
2022/09/24 21:35:34;;;;;;;12.30;9.90;;;8.30;99.90;;;;;;21069026;28;20366;-59
2022/09/24 21:45:37;;;;;;;11.23;8.55;;;8.40;99.90;;;;;;21107100;28;20496;-55
2022/09/24 21:55:40;;;;;;;11.48;9.10;;;8.30;99.90;;;;;;20996737;28;20102;-62
2022/09/24 22:05:42;;;;;;;12.23;9.70;;;8.30;99.90;;;;;;21009990;28;20036;-50
2022/09/24 22:15:45;;;;;;;11.02;8.98;;;8.30;99.90;;;;;;21064643;28;20133;-49
2022/09/24 22:25:54;;;;;;;11.50;9.60;;;8.30;99.90;;;;;;20992061;28;20032;-51
2022/09/24 22:35:56;;;;;;;7.68;6.10;;;8.30;99.90;;;;;;21009625;28;20040;-48
2022/09/24 22:46:05;;;;;;;8.45;5.95;;;8.30;99.90;;;;;;21104506;28;20039;-62
2022/09/24 22:56:18;;;;;;;5.87;4.57;;;8.20;99.90;;;;;;21071394;28;20052;-46
2022/09/24 23:06:22;;;;;;;5.95;3.75;;;8.20;99.90;;;;;;21061033;28;20081;-50
2022/09/24 23:16:36;;;;;;;4.20;3.25;;;8.20;99.90;;;;;;21059898;28;20032;-50
2022/09/24 23:26:38;;;;;;;4.65;3.10;;;8.30;99.90;;;;;;21059370;28;20547;-47
2022/09/24 23:36:41;;;;;;;4.10;2.78;;;8.20;99.90;;;;;;21056954;28;20436;-47
2022/09/24 23:46:43;;;;;;;2.08;1.88;;;8.30;99.90;;;;;;21106575;28;20031;-47
2022/09/24 23:56:47;;;;;;;3.67;2.40;;;8.30;99.90;;;;;;21061393;28;20463;-47
